createdAt,value
2022-09-30T00:09:39.581Z,8.99
2022-09-30T00:19:41.974Z,9.09
2022-09-30T00:29:45.558Z,9.12
2022-09-30T00:39:47.999Z,9.20
2022-09-30T00:49:51.974Z,9.16
2022-09-30T00:59:54.683Z,9.27
2022-09-30T01:09:58.380Z,9.33
2022-09-30T01:20:43.062Z,9.41
2022-09-30T01:31:16.346Z,9.48
2022-09-30T01:41:28.573Z,9.53
2022-09-30T01:51:40.218Z,9.52
2022-09-30T02:01:51.151Z,9.56
2022-09-30T02:11:56.822Z,9.54
2022-09-30T02:22:04.176Z,9.50
2022-09-30T02:32:14.313Z,9.52
2022-09-30T02:42:28.876Z,9.49
2022-09-30T02:52:49.208Z,9.43
2022-09-30T03:03:05.595Z,9.52
2022-09-30T03:13:37.334Z,9.58
2022-09-30T03:24:01.178Z,9.60
2022-09-30T03:34:28.113Z,9.63
2022-09-30T03:44:40.566Z,9.60
2022-09-30T03:54:52.142Z,9.59
2022-09-30T04:04:54.486Z,9.49
2022-09-30T04:14:56.770Z,9.45
2022-09-30T04:24:59.064Z,9.41
2022-09-30T04:35:01.558Z,9.31
2022-09-30T04:45:04.278Z,9.42
2022-09-30T04:55:07.273Z,9.43
2022-09-30T05:05:09.966Z,9.38
2022-09-30T05:15:12.981Z,9.30
2022-09-30T05:25:15.913Z,9.37
2022-09-30T05:35:18.341Z,9.41
2022-09-30T05:45:20.652Z,9.37
2022-09-30T05:55:23.349Z,9.30
2022-09-30T06:05:26.232Z,9.25
2022-09-30T06:15:28.853Z,9.21
2022-09-30T06:25:32.409Z,9.17
2022-09-30T06:35:35.146Z,9.19
2022-09-30T06:45:38.552Z,9.29
2022-09-30T06:55:42.232Z,9.34
2022-09-30T07:05:45.036Z,9.39
2022-09-30T07:15:47.957Z,9.43
2022-09-30T07:25:57.142Z,9.56
2022-09-30T07:36:01.829Z,9.80
2022-09-30T07:46:13.720Z,9.92
2022-09-30T07:56:17.721Z,10.09
2022-09-30T08:06:21.782Z,10.18
2022-09-30T08:16:26.601Z,10.13
2022-09-30T08:26:30.290Z,10.39
2022-09-30T08:36:32.831Z,10.54
2022-09-30T08:46:58.256Z,10.24
2022-09-30T08:57:04.399Z,10.25
2022-09-30T09:07:25.963Z,10.41
2022-09-30T09:18:04.330Z,10.65
2022-09-30T09:28:38.505Z,10.59
2022-09-30T09:39:06.977Z,10.73
2022-09-30T09:49:21.407Z,11.14
2022-09-30T09:59:25.929Z,11.57
2022-09-30T10:09:37.050Z,11.50
2022-09-30T10:19:49.403Z,11.46
2022-09-30T10:29:52.950Z,11.67
2022-09-30T10:40:07.622Z,11.76
2022-09-30T10:50:18.093Z,11.64
2022-09-30T11:00:24.359Z,11.58
2022-09-30T11:10:52.351Z,11.66
2022-09-30T11:21:04.062Z,11.74
2022-09-30T11:31:20.750Z,12.11
2022-09-30T11:41:47.168Z,12.64
2022-09-30T11:52:23.090Z,13.35
2022-09-30T12:02:39.805Z,13.79
2022-09-30T12:12:44.554Z,14.21
2022-09-30T12:22:49.490Z,13.85
2022-09-30T12:33:44.368Z,14.14
2022-09-30T12:44:17.032Z,14.80
2022-09-30T12:54:33.949Z,15.22
2022-09-30T13:04:42.187Z,15.52
2022-09-30T13:14:45.391Z,15.44
2022-09-30T13:25:05.974Z,15.37
2022-09-30T13:35:37.879Z,15.45
2022-09-30T13:45:44.173Z,15.55
2022-09-30T13:55:51.294Z,15.35
2022-09-30T14:06:10.524Z,14.86
2022-09-30T14:16:46.413Z,14.72
2022-09-30T14:27:16.192Z,14.63
2022-09-30T14:37:29.215Z,14.62
2022-09-30T14:47:43.849Z,14.46
2022-09-30T14:57:46.684Z,14.43
2022-09-30T15:07:49.877Z,14.20
2022-09-30T15:17:55.766Z,13.71
2022-09-30T15:27:58.818Z,13.30
2022-09-30T15:38:32.884Z,13.11
2022-09-30T15:48:36.531Z,12.99
2022-09-30T15:58:40.408Z,12.73
2022-09-30T16:08:48.106Z,12.50
2022-09-30T16:18:53.329Z,12.25
2022-09-30T16:28:56.953Z,12.00
2022-09-30T16:38:59.469Z,11.72
2022-09-30T16:49:16.591Z,11.41
2022-09-30T16:59:20.071Z,11.16
2022-09-30T17:09:22.753Z,10.89
2022-09-30T17:19:25.466Z,10.62
2022-09-30T17:29:32.331Z,10.35
2022-09-30T17:39:35.965Z,10.06
2022-09-30T17:49:38.979Z,9.83
2022-09-30T17:59:45.854Z,9.62
2022-09-30T18:09:48.656Z,9.42
2022-09-30T18:19:51.259Z,9.22
2022-09-30T18:29:53.892Z,9.10
2022-09-30T18:39:56.341Z,8.96
2022-09-30T18:49:59.436Z,8.84
2022-09-30T19:00:02.675Z,8.62
2022-09-30T19:10:07.174Z,8.53
2022-09-30T19:20:10.407Z,8.50
2022-09-30T19:30:14.853Z,8.43
2022-09-30T19:40:21.908Z,8.39
2022-09-30T19:50:25.274Z,8.33
2022-09-30T20:00:28.075Z,8.32
2022-09-30T20:10:32.859Z,8.17
2022-09-30T20:20:36.077Z,8.07
2022-09-30T20:30:45.834Z,8.05
2022-09-30T20:40:57.416Z,7.94
2022-09-30T20:51:00.531Z,7.84
2022-09-30T21:01:05.826Z,7.80
2022-09-30T21:11:09.161Z,7.73
2022-09-30T21:21:14.204Z,7.70
2022-09-30T21:31:27.132Z,7.67
2022-09-30T21:41:30.437Z,7.56
2022-09-30T21:51:34.924Z,7.48
2022-09-30T22:01:38.217Z,7.41
2022-09-30T22:11:42.695Z,7.38
2022-09-30T22:21:45.288Z,7.38
2022-09-30T22:31:47.695Z,7.31
2022-09-30T22:41:55.030Z,7.33
2022-09-30T22:51:58.074Z,7.21
2022-09-30T23:02:00.580Z,7.15
2022-09-30T23:12:02.936Z,7.08
2022-09-30T23:22:06.399Z,6.99
2022-09-30T23:32:08.905Z,6.95
2022-09-30T23:42:11.190Z,6.93
2022-09-30T23:52:13.945Z,6.88
